createdAt,value
2018-06-15T00:02:09.286Z,16.29
2018-06-15T00:04:36.846Z,16.24
2018-06-15T00:07:04.474Z,16.15
2018-06-15T00:09:32.028Z,16.13
2018-06-15T00:11:59.614Z,16.09
2018-06-15T00:14:27.146Z,16.13
2018-06-15T00:16:54.766Z,16.14
2018-06-15T00:19:22.275Z,16.28
2018-06-15T00:21:49.902Z,16.36
2018-06-15T00:24:17.487Z,16.44
2018-06-15T00:26:45.044Z,16.42
2018-06-15T00:29:12.602Z,16.35
2018-06-15T00:31:40.175Z,16.35
2018-06-15T00:34:07.743Z,16.37
2018-06-15T00:36:35.296Z,16.41
2018-06-15T00:39:03.294Z,16.43
2018-06-15T00:41:30.834Z,16.45
2018-06-15T00:43:58.381Z,16.44
2018-06-15T00:46:25.964Z,16.43
2018-06-15T00:48:53.525Z,16.42
2018-06-15T00:51:21.052Z,16.42
2018-06-15T00:53:48.632Z,16.46
2018-06-15T00:56:16.183Z,16.48
2018-06-15T00:58:43.714Z,16.46
2018-06-15T01:01:11.284Z,16.39
2018-06-15T01:03:38.875Z,16.31
2018-06-15T01:06:06.435Z,16.29
2018-06-15T01:08:34.010Z,16.30
2018-06-15T01:11:01.542Z,16.30
2018-06-15T01:13:29.102Z,16.16
2018-06-15T01:15:56.675Z,16.06
2018-06-15T01:18:24.215Z,16.06
2018-06-15T01:20:51.760Z,16.01
2018-06-15T01:23:19.335Z,16.02
2018-06-15T01:25:46.856Z,16.11
2018-06-15T01:28:14.425Z,16.14
2018-06-15T01:30:42.014Z,16.07
2018-06-15T01:33:09.546Z,16.02
2018-06-15T01:35:37.099Z,15.98
2018-06-15T01:38:04.749Z,16.05
2018-06-15T01:40:32.278Z,16.06
2018-06-15T01:42:59.842Z,16.05
2018-06-15T01:45:27.394Z,16.05
2018-06-15T01:47:55.014Z,16.03
2018-06-15T01:50:22.587Z,15.98
2018-06-15T01:52:50.527Z,15.94
2018-06-15T01:55:18.120Z,15.91
2018-06-15T01:57:45.932Z,15.91
2018-06-15T02:00:13.485Z,15.95
2018-06-15T02:02:41.244Z,15.92
2018-06-15T02:05:08.852Z,15.89
2018-06-15T02:07:36.402Z,15.86
2018-06-15T02:10:04.107Z,15.86
2018-06-15T02:12:31.642Z,15.86
2018-06-15T02:14:59.241Z,15.80
2018-06-15T02:17:26.766Z,15.74
2018-06-15T02:19:55.250Z,15.70
2018-06-15T02:22:22.823Z,15.62
2018-06-15T02:24:50.370Z,15.58
2018-06-15T02:27:17.922Z,15.53
2018-06-15T02:29:45.514Z,15.48
2018-06-15T02:32:13.052Z,15.42
2018-06-15T02:34:40.622Z,15.34
2018-06-15T02:37:08.209Z,15.32
2018-06-15T02:39:35.746Z,15.32
2018-06-15T02:42:03.318Z,15.33
2018-06-15T02:44:30.882Z,15.35
2018-06-15T02:46:58.418Z,15.38
2018-06-15T02:49:25.959Z,15.35
2018-06-15T02:51:53.656Z,15.31
2018-06-15T02:54:21.195Z,15.23
2018-06-15T02:56:48.832Z,15.19
2018-06-15T02:59:16.403Z,15.13
2018-06-15T03:01:43.970Z,15.14
2018-06-15T03:04:11.515Z,15.10
2018-06-15T03:06:39.110Z,15.02
2018-06-15T03:09:07.154Z,14.91
2018-06-15T03:11:34.696Z,14.92
2018-06-15T03:14:02.306Z,14.97
2018-06-15T03:16:29.838Z,15.00
2018-06-15T03:18:57.370Z,15.03
2018-06-15T03:21:24.911Z,15.04
2018-06-15T03:23:52.470Z,15.03
2018-06-15T03:26:20.019Z,14.95
2018-06-15T03:28:47.599Z,14.96
2018-06-15T03:31:15.210Z,15.00
2018-06-15T03:33:42.754Z,15.04
2018-06-15T03:36:10.331Z,15.08
2018-06-15T03:38:37.854Z,15.10
2018-06-15T03:41:05.432Z,15.15
2018-06-15T03:43:33.075Z,15.25
2018-06-15T03:46:00.615Z,15.24
2018-06-15T03:48:28.150Z,15.23
2018-06-15T03:50:55.722Z,15.25
2018-06-15T03:53:23.260Z,15.32
2018-06-15T03:55:50.808Z,15.41
2018-06-15T03:58:18.387Z,15.49
2018-06-15T04:00:45.975Z,15.61
2018-06-15T04:03:13.534Z,15.70
2018-06-15T04:05:41.092Z,15.81
2018-06-15T04:08:08.632Z,15.91
2018-06-15T04:10:36.306Z,16.00
2018-06-15T04:13:03.885Z,16.16
2018-06-15T04:15:31.526Z,16.23
2018-06-15T04:18:06.172Z,16.32
2018-06-15T04:20:34.606Z,16.42
2018-06-15T04:23:02.362Z,16.52
2018-06-15T04:25:30.435Z,16.65
2018-06-15T04:27:57.958Z,16.71
2018-06-15T04:30:25.483Z,16.72
2018-06-15T04:32:53.141Z,16.88
2018-06-15T04:35:20.654Z,16.89
2018-06-15T04:37:48.203Z,16.84
2018-06-15T04:40:15.850Z,16.96
2018-06-15T04:42:43.762Z,16.88
2018-06-15T04:45:11.306Z,17.06
2018-06-15T04:47:38.970Z,17.06
2018-06-15T04:50:07.046Z,17.17
2018-06-15T04:52:34.593Z,17.26
2018-06-15T04:55:02.165Z,17.33
2018-06-15T04:57:29.938Z,17.36
2018-06-15T04:59:57.975Z,17.49
2018-06-15T05:02:25.614Z,17.55
2018-06-15T05:04:53.139Z,17.55
2018-06-15T05:07:20.658Z,17.62
2018-06-15T05:09:48.213Z,17.61
2018-06-15T05:12:15.817Z,17.69
2018-06-15T05:14:43.370Z,17.69
2018-06-15T05:17:10.963Z,17.70
2018-06-15T05:19:38.554Z,17.76
2018-06-15T05:22:06.233Z,17.75
2018-06-15T05:24:33.786Z,17.83
2018-06-15T05:27:01.400Z,17.73
2018-06-15T05:29:28.914Z,17.74
2018-06-15T05:31:56.558Z,17.78
2018-06-15T05:34:24.070Z,17.85
2018-06-15T05:36:51.590Z,18.16
2018-06-15T05:39:19.152Z,18.44
2018-06-15T05:41:46.691Z,18.64
2018-06-15T05:44:14.203Z,18.77
2018-06-15T05:46:41.807Z,18.92
2018-06-15T05:49:09.344Z,19.04
2018-06-15T05:51:36.888Z,19.22
2018-06-15T05:54:04.527Z,19.20
2018-06-15T05:56:32.028Z,19.14
2018-06-15T05:58:59.567Z,19.23
2018-06-15T06:01:27.127Z,19.30
2018-06-15T06:03:54.949Z,19.26
2018-06-15T06:06:22.598Z,19.11
2018-06-15T06:08:50.145Z,19.26
2018-06-15T06:11:17.657Z,19.51
2018-06-15T06:13:45.190Z,19.57
2018-06-15T06:16:12.829Z,19.67
2018-06-15T06:18:40.349Z,19.65
2018-06-15T06:21:07.891Z,19.67
2018-06-15T06:23:35.448Z,19.81
2018-06-15T06:26:03.002Z,19.78
2018-06-15T06:28:30.554Z,19.97
2018-06-15T06:30:58.098Z,20.17
2018-06-15T06:33:25.680Z,20.16
2018-06-15T06:35:53.215Z,20.13
2018-06-15T06:38:20.803Z,20.21
2018-06-15T06:40:48.354Z,20.32
2018-06-15T06:43:15.879Z,20.53
2018-06-15T06:45:43.430Z,20.78
2018-06-15T06:48:10.951Z,20.90
2018-06-15T06:50:38.556Z,20.89
2018-06-15T06:53:06.082Z,20.86
2018-06-15T06:55:33.952Z,20.99
2018-06-15T06:58:01.537Z,21.14
2018-06-15T07:00:29.089Z,21.27
2018-06-15T07:02:57.269Z,21.49
2018-06-15T07:05:24.798Z,21.64
2018-06-15T07:07:52.361Z,21.61
2018-06-15T07:10:19.935Z,21.81
2018-06-15T07:12:47.487Z,21.71
2018-06-15T07:15:15.053Z,21.80
2018-06-15T07:17:42.592Z,22.04
2018-06-15T07:20:10.135Z,22.30
2018-06-15T07:22:37.700Z,22.39
2018-06-15T07:25:05.234Z,22.72
2018-06-15T07:27:32.752Z,23.08
2018-06-15T07:30:00.303Z,23.30
2018-06-15T07:32:27.873Z,22.95
2018-06-15T07:34:55.445Z,23.10
2018-06-15T07:37:22.994Z,23.19
2018-06-15T07:39:50.520Z,23.52
2018-06-15T07:42:18.054Z,23.66
2018-06-15T07:44:45.607Z,23.77
2018-06-15T07:47:13.129Z,23.69
2018-06-15T07:49:40.659Z,23.93
2018-06-15T07:52:08.211Z,24.29
2018-06-15T07:54:35.734Z,24.34
2018-06-15T07:57:03.278Z,24.56
2018-06-15T07:59:30.871Z,24.91
2018-06-15T08:01:58.361Z,25.15
2018-06-15T08:04:25.947Z,25.15
2018-06-15T08:06:53.498Z,25.36
2018-06-15T08:09:21.022Z,25.53
2018-06-15T08:11:48.538Z,25.54
2018-06-15T08:14:16.105Z,25.67
2018-06-15T08:16:43.638Z,25.66
2018-06-15T08:19:11.205Z,25.58
2018-06-15T08:21:38.798Z,25.82
2018-06-15T08:24:06.715Z,26.04
2018-06-15T08:26:34.238Z,26.26
2018-06-15T08:29:01.798Z,26.28
2018-06-15T08:31:29.981Z,26.49
2018-06-15T08:33:57.520Z,26.57
2018-06-15T08:36:25.063Z,26.75
2018-06-15T08:38:52.586Z,26.85
2018-06-15T08:41:20.119Z,27.10
2018-06-15T08:43:47.675Z,27.30
2018-06-15T08:46:15.205Z,27.33
2018-06-15T08:48:42.730Z,27.69
2018-06-15T08:51:10.324Z,27.76
2018-06-15T08:53:37.930Z,28.02
2018-06-15T08:56:05.490Z,28.31
2018-06-15T08:58:33.269Z,28.43
2018-06-15T09:01:00.786Z,28.57
2018-06-15T09:03:28.311Z,29.00
2018-06-15T09:05:55.974Z,28.80
2018-06-15T09:08:23.510Z,28.73
2018-06-15T09:10:51.033Z,28.07
2018-06-15T09:13:18.603Z,27.61
2018-06-15T09:15:46.126Z,27.74
2018-06-15T09:18:13.688Z,27.74
2018-06-15T09:20:48.023Z,27.12
2018-06-15T09:23:15.699Z,27.76
2018-06-15T09:25:43.214Z,27.94
2018-06-15T09:28:10.773Z,27.10
2018-06-15T09:30:38.274Z,26.65
2018-06-15T09:33:05.785Z,26.45
2018-06-15T09:35:33.382Z,26.37
2018-06-15T09:38:00.952Z,26.91
2018-06-15T09:40:28.467Z,27.58
2018-06-15T09:42:56.002Z,28.47
2018-06-15T09:45:23.514Z,28.67
2018-06-15T09:47:51.035Z,28.75
2018-06-15T09:50:18.578Z,27.92
2018-06-15T09:52:46.088Z,27.37
2018-06-15T09:55:13.622Z,26.81
2018-06-15T09:57:41.184Z,26.32
2018-06-15T10:00:08.701Z,25.84
2018-06-15T10:02:36.251Z,25.67
2018-06-15T10:05:03.833Z,25.59
2018-06-15T10:07:31.346Z,25.54
2018-06-15T10:09:58.858Z,25.38
2018-06-15T10:12:26.390Z,25.24
2018-06-15T10:14:53.898Z,25.17
2018-06-15T10:17:21.405Z,25.30
2018-06-15T10:19:48.958Z,25.37
2018-06-15T10:22:16.490Z,25.49
2018-06-15T10:24:44.003Z,25.48
2018-06-15T10:27:11.605Z,25.48
2018-06-15T10:29:39.108Z,25.58
2018-06-15T10:32:06.655Z,25.62
2018-06-15T10:34:34.203Z,25.85
2018-06-15T10:37:01.734Z,26.07
2018-06-15T10:39:29.270Z,26.51
2018-06-15T10:41:56.834Z,26.88
2018-06-15T10:44:24.354Z,27.30
2018-06-15T10:46:51.884Z,28.40
2018-06-15T10:49:19.442Z,29.33
2018-06-15T10:51:46.970Z,30.28
2018-06-15T10:54:14.485Z,31.00
2018-06-15T10:56:42.046Z,30.32
2018-06-15T10:59:09.606Z,29.80
2018-06-15T11:01:37.189Z,29.63
2018-06-15T11:04:04.798Z,29.33
2018-06-15T11:06:32.297Z,28.83
2018-06-15T11:08:59.851Z,28.44
2018-06-15T11:11:27.447Z,27.97
2018-06-15T11:13:54.955Z,27.39
2018-06-15T11:16:22.478Z,27.10
2018-06-15T11:18:50.035Z,27.17
2018-06-15T11:21:17.559Z,26.74
2018-06-15T11:23:45.074Z,26.46
2018-06-15T11:26:12.627Z,26.14
2018-06-15T11:28:40.191Z,25.98
2018-06-15T11:31:07.764Z,25.78
2018-06-15T11:33:35.307Z,25.62
2018-06-15T11:36:02.843Z,25.39
2018-06-15T11:38:30.350Z,25.20
2018-06-15T11:40:57.975Z,24.97
2018-06-15T11:43:25.470Z,25.09
2018-06-15T11:45:52.986Z,25.13
2018-06-15T11:48:20.533Z,25.20
2018-06-15T11:50:48.059Z,25.43
2018-06-15T11:53:15.587Z,25.68
2018-06-15T11:55:43.136Z,25.78
2018-06-15T11:58:10.683Z,25.94
2018-06-15T12:00:38.281Z,26.14
2018-06-15T12:03:05.972Z,26.23
2018-06-15T12:05:33.516Z,26.65
2018-06-15T12:08:01.042Z,28.34
2018-06-15T12:10:28.582Z,30.49
2018-06-15T12:12:56.116Z,32.08
2018-06-15T12:15:23.652Z,33.36
2018-06-15T12:17:51.206Z,34.24
2018-06-15T12:20:18.728Z,34.49
2018-06-15T12:22:46.278Z,32.18
2018-06-15T12:25:13.818Z,30.46
2018-06-15T12:27:41.359Z,29.54
2018-06-15T12:30:08.887Z,29.26
2018-06-15T12:32:36.467Z,28.79
2018-06-15T12:35:04.064Z,28.33
2018-06-15T12:37:31.578Z,27.73
2018-06-15T12:39:59.123Z,27.32
2018-06-15T12:42:26.661Z,27.11
2018-06-15T12:44:54.173Z,26.83
2018-06-15T12:47:21.739Z,26.59
2018-06-15T12:49:49.257Z,26.40
2018-06-15T12:52:16.779Z,26.22
2018-06-15T12:54:44.405Z,26.03
2018-06-15T12:57:11.917Z,25.80
2018-06-15T12:59:39.451Z,25.73
2018-06-15T13:02:07.000Z,25.64
2018-06-15T13:04:34.525Z,25.52
2018-06-15T13:07:02.060Z,25.48
2018-06-15T13:09:29.622Z,25.49
2018-06-15T13:11:57.147Z,25.40
2018-06-15T13:14:24.675Z,25.38
2018-06-15T13:16:52.282Z,25.29
2018-06-15T13:19:19.804Z,25.21
2018-06-15T13:21:47.330Z,25.20
2018-06-15T13:24:14.883Z,25.21
2018-06-15T13:26:42.418Z,25.17
2018-06-15T13:29:09.937Z,25.05
2018-06-15T13:31:37.506Z,24.93
2018-06-15T13:34:05.039Z,24.78
2018-06-15T13:36:32.558Z,24.75
2018-06-15T13:39:00.106Z,24.78
2018-06-15T13:41:27.638Z,24.82
2018-06-15T13:43:55.164Z,24.76
2018-06-15T13:46:22.738Z,24.71
2018-06-15T13:48:50.274Z,24.65
2018-06-15T13:51:17.870Z,24.61
2018-06-15T13:53:45.483Z,24.52
2018-06-15T13:56:13.090Z,24.42
2018-06-15T13:58:40.672Z,24.37
2018-06-15T14:01:08.323Z,24.37
2018-06-15T14:03:35.871Z,24.31
2018-06-15T14:06:03.790Z,24.29
2018-06-15T14:08:31.413Z,24.25
2018-06-15T14:10:59.226Z,24.22
2018-06-15T14:13:26.773Z,24.18
2018-06-15T14:15:54.733Z,24.16
2018-06-15T14:18:22.454Z,24.13
2018-06-15T14:20:50.631Z,24.09
2018-06-15T14:23:18.423Z,24.09
2018-06-15T14:25:46.056Z,24.06
2018-06-15T14:28:13.586Z,24.03
2018-06-15T14:30:41.138Z,23.96
2018-06-15T14:33:08.714Z,24.00
2018-06-15T14:35:36.285Z,23.97
2018-06-15T14:38:03.874Z,23.97
2018-06-15T14:40:31.429Z,23.99
2018-06-15T14:42:59.037Z,23.99
2018-06-15T14:45:26.653Z,23.98
2018-06-15T14:47:54.202Z,23.99
2018-06-15T14:50:21.742Z,24.01
2018-06-15T14:52:49.325Z,24.04
2018-06-15T14:55:16.968Z,24.05
2018-06-15T14:57:44.906Z,24.08
2018-06-15T15:00:12.659Z,24.12
2018-06-15T15:02:40.200Z,24.15
2018-06-15T15:05:07.746Z,24.20
2018-06-15T15:07:35.297Z,24.22
2018-06-15T15:10:02.926Z,24.25
2018-06-15T15:12:30.472Z,24.30
2018-06-15T15:14:58.046Z,24.42
2018-06-15T15:17:25.595Z,24.43
2018-06-15T15:19:53.386Z,24.43
2018-06-15T15:22:20.970Z,24.48
2018-06-15T15:24:48.534Z,24.55
2018-06-15T15:27:16.081Z,24.61
2018-06-15T15:29:43.646Z,24.65
2018-06-15T15:32:11.215Z,24.67
2018-06-15T15:34:38.776Z,24.75
2018-06-15T15:37:06.586Z,24.80
2018-06-15T15:39:34.206Z,24.83
2018-06-15T15:42:01.845Z,24.93
2018-06-15T15:44:29.434Z,24.95
2018-06-15T15:46:56.995Z,25.03
2018-06-15T15:49:24.547Z,25.05
2018-06-15T15:51:52.247Z,25.09
2018-06-15T15:54:20.609Z,25.10
2018-06-15T15:56:48.191Z,25.09
2018-06-15T15:59:15.737Z,25.11
2018-06-15T16:01:43.280Z,25.04
2018-06-15T16:04:10.806Z,24.96
2018-06-15T16:06:38.413Z,24.83
2018-06-15T16:09:06.517Z,24.76
2018-06-15T16:11:34.105Z,24.69
2018-06-15T16:14:01.648Z,24.55
2018-06-15T16:16:29.210Z,24.48
2018-06-15T16:18:56.841Z,24.39
2018-06-15T16:21:24.410Z,24.29
2018-06-15T16:23:51.982Z,24.18
2018-06-15T16:26:19.542Z,24.11
2018-06-15T16:28:47.118Z,24.06
2018-06-15T16:31:14.651Z,23.99
2018-06-15T16:33:42.218Z,23.91
2018-06-15T16:36:09.878Z,23.88
2018-06-15T16:38:37.443Z,23.84
2018-06-15T16:41:04.959Z,23.77
2018-06-15T16:43:32.557Z,23.69
2018-06-15T16:46:00.139Z,23.71
2018-06-15T16:48:27.701Z,23.75
2018-06-15T16:50:55.305Z,23.78
2018-06-15T16:53:22.846Z,23.73
2018-06-15T16:55:50.402Z,23.69
2018-06-15T16:58:17.994Z,23.65
2018-06-15T17:00:45.546Z,23.60
2018-06-15T17:03:13.140Z,23.57
2018-06-15T17:05:40.706Z,23.54
2018-06-15T17:08:08.315Z,23.50
2018-06-15T17:10:35.870Z,23.46
2018-06-15T17:13:03.514Z,23.43
2018-06-15T17:15:31.070Z,23.38
2018-06-15T17:17:59.271Z,23.31
2018-06-15T17:20:26.858Z,23.24
2018-06-15T17:22:54.382Z,23.19
2018-06-15T17:25:21.931Z,23.13
2018-06-15T17:27:49.483Z,23.09
2018-06-15T17:30:17.016Z,23.04
2018-06-15T17:32:44.573Z,22.99
2018-06-15T17:35:12.177Z,22.94
2018-06-15T17:37:39.697Z,22.91
2018-06-15T17:40:07.287Z,22.91
2018-06-15T17:42:36.076Z,22.91
2018-06-15T17:45:03.693Z,22.89
2018-06-15T17:47:31.258Z,22.84
2018-06-15T17:49:58.831Z,22.84
2018-06-15T17:52:26.410Z,22.79
2018-06-15T17:54:53.930Z,22.70
2018-06-15T17:57:21.490Z,22.63
2018-06-15T17:59:49.030Z,22.57
2018-06-15T18:02:16.578Z,22.50
2018-06-15T18:04:44.124Z,22.41
2018-06-15T18:07:11.670Z,22.34
2018-06-15T18:09:39.200Z,22.27
2018-06-15T18:12:06.769Z,22.20
2018-06-15T18:14:34.314Z,22.17
2018-06-15T18:17:01.862Z,22.13
2018-06-15T18:19:29.443Z,22.05
2018-06-15T18:21:56.983Z,22.00
2018-06-15T18:24:24.509Z,21.91
2018-06-15T18:26:52.083Z,21.85
2018-06-15T18:29:19.602Z,21.80
2018-06-15T18:31:47.200Z,21.74
2018-06-15T18:34:14.766Z,21.70
2018-06-15T18:36:42.323Z,21.64
2018-06-15T18:39:12.494Z,21.60
2018-06-15T18:41:40.075Z,21.54
2018-06-15T18:44:07.818Z,21.52
2018-06-15T18:46:35.425Z,21.46
2018-06-15T18:49:02.987Z,21.44
2018-06-15T18:51:30.547Z,21.39
2018-06-15T18:53:58.246Z,21.36
2018-06-15T18:56:25.835Z,21.32
2018-06-15T18:58:53.379Z,21.31
2018-06-15T19:01:20.923Z,21.30
2018-06-15T19:03:48.486Z,21.26
2018-06-15T19:06:16.048Z,21.21
2018-06-15T19:08:43.609Z,21.17
2018-06-15T19:11:11.194Z,21.15
2018-06-15T19:13:38.914Z,21.13
2018-06-15T19:16:07.020Z,21.10
2018-06-15T19:18:34.598Z,21.08
2018-06-15T19:21:02.139Z,21.00
2018-06-15T19:23:29.712Z,20.95
2018-06-15T19:25:57.291Z,20.90
2018-06-15T19:28:24.879Z,20.85
2018-06-15T19:30:52.418Z,20.81
2018-06-15T19:33:19.986Z,20.76
2018-06-15T19:35:47.554Z,20.74
2018-06-15T19:38:15.098Z,20.64
2018-06-15T19:40:42.659Z,20.57
2018-06-15T19:43:10.219Z,20.54
2018-06-15T19:45:37.902Z,20.49
2018-06-15T19:48:05.521Z,20.39
2018-06-15T19:50:33.082Z,20.36
2018-06-15T19:53:00.774Z,20.34
2018-06-15T19:55:28.333Z,20.31
2018-06-15T19:57:55.826Z,20.28
2018-06-15T20:00:23.517Z,20.20
2018-06-15T20:02:51.088Z,20.16
2018-06-15T20:05:18.679Z,20.09
2018-06-15T20:07:46.165Z,20.00
2018-06-15T20:10:13.890Z,19.94
2018-06-15T20:12:41.573Z,19.87
2018-06-15T20:15:09.127Z,19.80
2018-06-15T20:17:37.473Z,19.72
2018-06-15T20:20:06.090Z,19.67
2018-06-15T20:22:33.778Z,19.62
2018-06-15T20:25:01.343Z,19.57
2018-06-15T20:27:28.989Z,19.50
2018-06-15T20:29:57.157Z,19.45
2018-06-15T20:32:24.806Z,19.39
2018-06-15T20:34:52.355Z,19.35
2018-06-15T20:37:20.003Z,19.29
2018-06-15T20:39:48.004Z,19.25
2018-06-15T20:42:15.577Z,19.21
2018-06-15T20:44:43.087Z,19.16
2018-06-15T20:47:10.643Z,19.11
2018-06-15T20:49:38.159Z,19.07
2018-06-15T20:52:05.903Z,19.05
2018-06-15T20:54:33.437Z,19.00
2018-06-15T20:57:00.986Z,18.97
2018-06-15T20:59:28.525Z,18.93
2018-06-15T21:01:56.078Z,18.89
2018-06-15T21:04:23.599Z,18.86
2018-06-15T21:06:51.124Z,18.83
2018-06-15T21:09:18.690Z,18.78
2018-06-15T21:11:46.238Z,18.73
2018-06-15T21:14:13.759Z,18.70
2018-06-15T21:16:41.301Z,18.64
2018-06-15T21:19:08.802Z,18.61
2018-06-15T21:21:36.307Z,18.57
2018-06-15T21:24:04.198Z,18.51
2018-06-15T21:26:31.696Z,18.47
2018-06-15T21:28:59.214Z,18.44
2018-06-15T21:31:26.787Z,18.38
2018-06-15T21:33:54.326Z,18.36
2018-06-15T21:36:21.869Z,18.36
2018-06-15T21:38:49.412Z,18.36
2018-06-15T21:41:16.942Z,18.36
2018-06-15T21:43:44.505Z,18.33
2018-06-15T21:46:12.506Z,18.30
2018-06-15T21:48:40.074Z,18.28
2018-06-15T21:51:07.634Z,18.24
2018-06-15T21:53:35.190Z,18.22
2018-06-15T21:56:02.705Z,18.19
2018-06-15T21:58:30.646Z,18.15
2018-06-15T22:00:58.199Z,18.14
2018-06-15T22:03:25.964Z,18.12
2018-06-15T22:05:53.748Z,18.11
2018-06-15T22:08:21.442Z,18.07
2018-06-15T22:10:48.966Z,18.06
2018-06-15T22:13:16.518Z,18.02
2018-06-15T22:15:44.079Z,17.98
2018-06-15T22:18:11.610Z,17.97
2018-06-15T22:20:39.129Z,17.96
2018-06-15T22:23:06.690Z,17.95
2018-06-15T22:25:34.372Z,17.93
2018-06-15T22:28:02.034Z,17.91
2018-06-15T22:30:29.603Z,17.92
2018-06-15T22:32:57.106Z,17.91
2018-06-15T22:35:24.614Z,17.93
2018-06-15T22:37:52.334Z,17.92
2018-06-15T22:40:19.882Z,17.90
2018-06-15T22:42:47.510Z,17.92
2018-06-15T22:45:15.667Z,17.90
2018-06-15T22:47:43.178Z,17.92
2018-06-15T22:50:10.803Z,17.93
2018-06-15T22:52:38.526Z,17.93
2018-06-15T22:55:06.330Z,17.92
2018-06-15T22:57:34.036Z,17.93
2018-06-15T23:00:01.633Z,17.92
2018-06-15T23:02:29.210Z,17.97
2018-06-15T23:05:07.010Z,17.97
2018-06-15T23:07:34.758Z,18.00
2018-06-15T23:10:02.586Z,18.02
2018-06-15T23:12:30.197Z,18.05
2018-06-15T23:14:57.800Z,18.06
2018-06-15T23:17:25.334Z,18.07
2018-06-15T23:19:53.053Z,18.09
2018-06-15T23:22:20.650Z,18.09
2018-06-15T23:24:48.384Z,18.09
2018-06-15T23:27:16.265Z,18.10
2018-06-15T23:29:43.952Z,18.14
2018-06-15T23:32:11.617Z,18.17
2018-06-15T23:34:39.210Z,18.20
2018-06-15T23:37:06.780Z,18.21
2018-06-15T23:39:34.438Z,18.25
2018-06-15T23:42:02.033Z,18.26
2018-06-15T23:44:29.649Z,18.18
2018-06-15T23:46:57.365Z,18.19
2018-06-15T23:49:25.055Z,18.19
2018-06-15T23:51:52.569Z,18.23
2018-06-15T23:54:20.106Z,18.26
2018-06-15T23:56:47.675Z,18.30
2018-06-15T23:59:15.174Z,18.32
